sensor_id;sensor_type;location;lat;lon;timestamp;pressure;altitude;pressure_sealevel;temperature;humidity
12913;BME280;6524;51.368;11.984;2022-08-19T04:02:08;99753.63;;;22.48;100.00
12913;BME280;6524;51.368;11.984;2022-08-19T04:07:10;99745.66;;;22.48;100.00
12913;BME280;6524;51.368;11.984;2022-08-19T04:12:11;99753.34;;;22.51;100.00
12913;BME280;6524;51.368;11.984;2022-08-19T04:17:11;99757.25;;;22.47;100.00
12913;BME280;6524;51.368;11.984;2022-08-19T04:22:14;99761.72;;;22.56;100.00
12913;BME280;6524;51.368;11.984;2022-08-19T04:27:14;99765.09;;;22.58;100.00
12913;BME280;6524;51.368;11.984;2022-08-19T04:32:16;99750.00;;;22.49;100.00
12913;BME280;6524;51.368;11.984;2022-08-19T04:37:16;99731.25;;;22.60;100.00
12913;BME280;6524;51.368;11.984;2022-08-19T04:42:17;99728.72;;;22.58;100.00
12913;BME280;6524;51.368;11.984;2022-08-19T04:47:38;99717.25;;;22.58;100.00
12913;BME280;6524;51.368;11.984;2022-08-19T04:52:39;99712.16;;;22.74;100.00
12913;BME280;6524;51.368;11.984;2022-08-19T04:57:42;99714.94;;;22.82;100.00
12913;BME280;6524;51.368;11.984;2022-08-19T05:02:43;99711.31;;;22.83;100.00
12913;BME280;6524;51.368;11.984;2022-08-19T05:07:43;99726.25;;;22.84;100.00
12913;BME280;6524;51.368;11.984;2022-08-19T05:12:43;99733.16;;;22.77;100.00
12913;BME280;6524;51.368;11.984;2022-08-19T05:17:44;99735.22;;;22.83;100.00
12913;BME280;6524;51.368;11.984;2022-08-19T05:23:04;99738.75;;;22.74;100.00
12913;BME280;6524;51.368;11.984;2022-08-19T05:28:04;99733.94;;;22.87;100.00
12913;BME280;6524;51.368;11.984;2022-08-19T05:33:04;99737.22;;;22.72;100.00
12913;BME280;6524;51.368;11.984;2022-08-19T05:38:06;99739.19;;;22.70;100.00
12913;BME280;6524;51.368;11.984;2022-08-19T05:43:09;99744.06;;;22.74;100.00
12913;BME280;6524;51.368;11.984;2022-08-19T05:48:11;99746.72;;;22.74;100.00
12913;BME280;6524;51.368;11.984;2022-08-19T05:53:11;99752.47;;;22.79;100.00
12913;BME280;6524;51.368;11.984;2022-08-19T05:58:12;99772.44;;;22.83;100.00
12913;BME280;6524;51.368;11.984;2022-08-19T06:03:12;99766.44;;;22.81;100.00
12913;BME280;6524;51.368;11.984;2022-08-19T06:08:12;99767.97;;;22.84;100.00
12913;BME280;6524;51.368;11.984;2022-08-19T06:13:13;99781.56;;;22.71;100.00
12913;BME280;6524;51.368;11.984;2022-08-19T06:18:13;99776.22;;;22.81;100.00
12913;BME280;6524;51.368;11.984;2022-08-19T06:23:14;99772.88;;;22.79;100.00
12913;BME280;6524;51.368;11.984;2022-08-19T06:28:15;99771.78;;;22.81;99.94
12913;BME280;6524;51.368;11.984;2022-08-19T06:33:15;99781.38;;;23.02;98.58
12913;BME280;6524;51.368;11.984;2022-08-19T06:38:15;99789.94;;;22.96;96.72
12913;BME280;6524;51.368;11.984;2022-08-19T06:43:15;99821.84;;;22.96;98.17
12913;BME280;6524;51.368;11.984;2022-08-19T06:48:16;99848.44;;;22.96;97.65
12913;BME280;6524;51.368;11.984;2022-08-19T06:53:17;99860.16;;;22.93;97.30
12913;BME280;6524;51.368;11.984;2022-08-19T06:58:19;99867.03;;;22.96;97.56
12913;BME280;6524;51.368;11.984;2022-08-19T07:03:19;99891.22;;;22.93;97.27
12913;BME280;6524;51.368;11.984;2022-08-19T07:08:21;99888.03;;;22.99;97.76
12913;BME280;6524;51.368;11.984;2022-08-19T07:13:21;99894.06;;;23.01;96.94
12913;BME280;6524;51.368;11.984;2022-08-19T07:18:22;99897.53;;;23.11;97.74
12913;BME280;6524;51.368;11.984;2022-08-19T07:23:22;99910.00;;;23.11;97.13
12913;BME280;6524;51.368;11.984;2022-08-19T07:28:23;99918.94;;;23.00;97.23
12913;BME280;6524;51.368;11.984;2022-08-19T07:33:23;99913.34;;;23.03;96.79
12913;BME280;6524;51.368;11.984;2022-08-19T07:38:24;99912.81;;;22.99;96.29
12913;BME280;6524;51.368;11.984;2022-08-19T07:43:25;99913.91;;;22.97;95.43
12913;BME280;6524;51.368;11.984;2022-08-19T07:48:27;99915.31;;;22.91;96.15
12913;BME280;6524;51.368;11.984;2022-08-19T07:53:30;99925.78;;;22.83;96.44
12913;BME280;6524;51.368;11.984;2022-08-19T07:58:34;99922.31;;;22.82;96.52
12913;BME280;6524;51.368;11.984;2022-08-19T08:03:36;99929.00;;;22.86;94.85
12913;BME280;6524;51.368;11.984;2022-08-19T08:08:56;99932.94;;;22.63;95.44
12913;BME280;6524;51.368;11.984;2022-08-19T08:14:11;99932.06;;;22.62;96.12
12913;BME280;6524;51.368;11.984;2022-08-19T08:19:13;99937.91;;;22.47;96.09
12913;BME280;6524;51.368;11.984;2022-08-19T08:24:16;99925.34;;;22.39;96.22
12913;BME280;6524;51.368;11.984;2022-08-19T08:29:16;99932.78;;;22.55;94.92
12913;BME280;6524;51.368;11.984;2022-08-19T08:34:17;99941.19;;;22.70;94.21
12913;BME280;6524;51.368;11.984;2022-08-19T08:39:19;99948.34;;;22.89;93.39
12913;BME280;6524;51.368;11.984;2022-08-19T08:49:59;99954.03;;;22.55;93.22
12913;BME280;6524;51.368;11.984;2022-08-19T08:55:07;99961.84;;;22.47;92.95
12913;BME280;6524;51.368;11.984;2022-08-19T09:00:19;99964.50;;;22.47;92.98
12913;BME280;6524;51.368;11.984;2022-08-19T09:05:21;99968.13;;;22.46;92.31
12913;BME280;6524;51.368;11.984;2022-08-19T09:10:34;99966.63;;;22.62;91.73
12913;BME280;6524;51.368;11.984;2022-08-19T09:15:46;99972.66;;;22.74;91.74
12913;BME280;6524;51.368;11.984;2022-08-19T09:20:47;99987.75;;;22.64;90.75
12913;BME280;6524;51.368;11.984;2022-08-19T09:25:48;99974.59;;;22.62;90.78
12913;BME280;6524;51.368;11.984;2022-08-19T09:30:48;99974.47;;;22.64;91.14
12913;BME280;6524;51.368;11.984;2022-08-19T09:36:02;99983.72;;;22.70;90.45
12913;BME280;6524;51.368;11.984;2022-08-19T09:41:05;99972.38;;;22.68;90.66
12913;BME280;6524;51.368;11.984;2022-08-19T09:46:07;99981.88;;;22.51;90.73
12913;BME280;6524;51.368;11.984;2022-08-19T09:51:11;99969.75;;;22.27;91.39
12913;BME280;6524;51.368;11.984;2022-08-19T09:56:13;99967.09;;;22.27;91.32
12913;BME280;6524;51.368;11.984;2022-08-19T10:01:22;99964.16;;;22.21;91.53
12913;BME280;6524;51.368;11.984;2022-08-19T10:06:25;99956.22;;;22.30;91.12
12913;BME280;6524;51.368;11.984;2022-08-19T10:11:26;99967.09;;;22.27;90.13
12913;BME280;6524;51.368;11.984;2022-08-19T10:16:28;99970.63;;;22.37;90.76
12913;BME280;6524;51.368;11.984;2022-08-19T10:21:31;99976.78;;;22.38;90.43
12913;BME280;6524;51.368;11.984;2022-08-19T10:26:40;99983.16;;;22.16;90.69
12913;BME280;6524;51.368;11.984;2022-08-19T10:31:47;99986.22;;;22.21;90.40
12913;BME280;6524;51.368;11.984;2022-08-19T10:36:48;99974.44;;;22.14;89.16
12913;BME280;6524;51.368;11.984;2022-08-19T10:41:48;99975.34;;;22.24;87.33
12913;BME280;6524;51.368;11.984;2022-08-19T10:46:49;99970.22;;;22.32;87.61
12913;BME280;6524;51.368;11.984;2022-08-19T10:51:49;99967.03;;;22.58;86.95
12913;BME280;6524;51.368;11.984;2022-08-19T10:57:24;99965.44;;;23.05;84.08
12913;BME280;6524;51.368;11.984;2022-08-19T11:02:29;99946.47;;;24.04;78.48
12913;BME280;6524;51.368;11.984;2022-08-19T11:07:29;99955.75;;;24.73;75.23
12913;BME280;6524;51.368;11.984;2022-08-19T11:12:29;99959.09;;;25.29;nan
12913;BME280;6524;51.368;11.984;2022-08-19T11:17:30;99959.13;;;25.81;72.70
12913;BME280;6524;51.368;11.984;2022-08-19T11:22:32;99958.50;;;25.87;68.99
12913;BME280;6524;51.368;11.984;2022-08-19T11:27:32;99965.94;;;26.01;69.23
12913;BME280;6524;51.368;11.984;2022-08-19T11:32:33;99976.06;;;25.72;69.98
12913;BME280;6524;51.368;11.984;2022-08-19T11:37:34;99986.38;;;25.23;70.85
12913;BME280;6524;51.368;11.984;2022-08-19T11:42:38;99994.34;;;25.14;74.03
12913;BME280;6524;51.368;11.984;2022-08-19T11:47:56;99995.66;;;25.54;72.27
12913;BME280;6524;51.368;11.984;2022-08-19T11:52:57;99995.25;;;25.93;69.97
12913;BME280;6524;51.368;11.984;2022-08-19T11:57:57;100000.44;;;26.29;66.84
12913;BME280;6524;51.368;11.984;2022-08-19T12:02:57;99997.19;;;27.18;65.60
12913;BME280;6524;51.368;11.984;2022-08-19T12:07:58;100001.69;;;27.51;62.48
12913;BME280;6524;51.368;11.984;2022-08-19T12:12:59;99991.97;;;27.90;62.87
12913;BME280;6524;51.368;11.984;2022-08-19T12:17:59;99981.41;;;28.36;61.33
12913;BME280;6524;51.368;11.984;2022-08-19T12:22:59;99987.19;;;28.79;60.14
12913;BME280;6524;51.368;11.984;2022-08-19T12:28:00;99973.94;;;29.09;57.91
12913;BME280;6524;51.368;11.984;2022-08-19T12:33:01;99970.09;;;29.64;57.21
12913;BME280;6524;51.368;11.984;2022-08-19T12:38:01;99963.13;;;29.17;58.00
12913;BME280;6524;51.368;11.984;2022-08-19T12:43:02;99963.94;;;29.41;56.97
12913;BME280;6524;51.368;11.984;2022-08-19T12:48:04;99960.94;;;29.36;56.76
12913;BME280;6524;51.368;11.984;2022-08-19T12:53:04;99959.84;;;29.07;56.97
12913;BME280;6524;51.368;11.984;2022-08-19T12:58:05;99967.56;;;29.10;57.37
12913;BME280;6524;51.368;11.984;2022-08-19T13:03:05;99956.19;;;29.00;57.99
12913;BME280;6524;51.368;11.984;2022-08-19T13:08:05;99961.78;;;29.36;56.35
12913;BME280;6524;51.368;11.984;2022-08-19T13:13:08;99969.63;;;29.61;56.19
12913;BME280;6524;51.368;11.984;2022-08-19T13:18:10;99977.41;;;29.56;56.03
12913;BME280;6524;51.368;11.984;2022-08-19T13:23:10;99971.94;;;29.49;55.74
12913;BME280;6524;51.368;11.984;2022-08-19T13:28:11;99958.03;;;28.76;57.72
12913;BME280;6524;51.368;11.984;2022-08-19T13:33:11;99966.97;;;28.46;59.35
12913;BME280;6524;51.368;11.984;2022-08-19T13:38:12;99971.22;;;28.63;59.22
12913;BME280;6524;51.368;11.984;2022-08-19T13:43:13;99973.50;;;28.74;58.36
12913;BME280;6524;51.368;11.984;2022-08-19T13:48:13;99990.09;;;27.99;60.29
12913;BME280;6524;51.368;11.984;2022-08-19T13:53:15;100005.56;;;27.40;61.96
12913;BME280;6524;51.368;11.984;2022-08-19T13:58:15;100011.34;;;26.94;63.86
12913;BME280;6524;51.368;11.984;2022-08-19T14:03:16;100013.94;;;26.53;65.37
12913;BME280;6524;51.368;11.984;2022-08-19T14:08:16;100009.78;;;26.25;66.10
12913;BME280;6524;51.368;11.984;2022-08-19T14:13:20;100016.13;;;25.90;68.51
12913;BME280;6524;51.368;11.984;2022-08-19T14:18:21;100013.91;;;25.85;68.51
12913;BME280;6524;51.368;11.984;2022-08-19T14:23:21;100007.72;;;26.11;67.38
12913;BME280;6524;51.368;11.984;2022-08-19T14:28:22;100014.91;;;25.84;68.48
12913;BME280;6524;51.368;11.984;2022-08-19T14:33:22;100022.94;;;25.84;68.32
12913;BME280;6524;51.368;11.984;2022-08-19T14:38:23;100016.81;;;25.74;69.68
12913;BME280;6524;51.368;11.984;2022-08-19T14:43:23;100019.00;;;25.78;68.99
12913;BME280;6524;51.368;11.984;2022-08-19T14:48:24;100026.38;;;25.76;67.68
12913;BME280;6524;51.368;11.984;2022-08-19T14:53:24;100021.50;;;25.54;69.21
12913;BME280;6524;51.368;11.984;2022-08-19T14:58:25;100010.09;;;25.70;68.83
12913;BME280;6524;51.368;11.984;2022-08-19T15:03:27;100007.50;;;25.78;68.21
12913;BME280;6524;51.368;11.984;2022-08-19T15:08:30;100007.69;;;26.02;66.73
12913;BME280;6524;51.368;11.984;2022-08-19T15:13:30;99988.25;;;25.92;67.60
12913;BME280;6524;51.368;11.984;2022-08-19T15:18:31;99999.56;;;25.86;67.57
12913;BME280;6524;51.368;11.984;2022-08-19T15:23:33;99999.91;;;25.91;67.16
12913;BME280;6524;51.368;11.984;2022-08-19T15:28:34;100002.47;;;25.75;68.17
12913;BME280;6524;51.368;11.984;2022-08-19T15:33:36;100004.75;;;25.70;67.76
12913;BME280;6524;51.368;11.984;2022-08-19T15:38:41;99995.78;;;25.71;67.51
12913;BME280;6524;51.368;11.984;2022-08-19T15:43:42;99975.22;;;25.89;67.36
12913;BME280;6524;51.368;11.984;2022-08-19T15:48:44;99973.06;;;25.67;68.94
12913;BME280;6524;51.368;11.984;2022-08-19T15:53:45;99980.06;;;25.42;69.74
12913;BME280;6524;51.368;11.984;2022-08-19T15:58:45;99986.84;;;25.36;69.34
12913;BME280;6524;51.368;11.984;2022-08-19T16:04:04;99995.34;;;25.13;70.53
12913;BME280;6524;51.368;11.984;2022-08-19T16:09:26;99993.25;;;25.07;70.44
12913;BME280;6524;51.368;11.984;2022-08-19T16:14:33;99993.88;;;25.01;70.99
12913;BME280;6524;51.368;11.984;2022-08-19T16:19:34;99980.31;;;25.12;71.57
12913;BME280;6524;51.368;11.984;2022-08-19T16:24:35;99989.06;;;25.05;71.75
12913;BME280;6524;51.368;11.984;2022-08-19T16:29:36;99986.47;;;24.77;71.45
12913;BME280;6524;51.368;11.984;2022-08-19T16:34:40;99979.75;;;24.73;72.03
12913;BME280;6524;51.368;11.984;2022-08-19T16:39:41;99964.44;;;24.93;72.30
12913;BME280;6524;51.368;11.984;2022-08-19T16:44:43;99965.34;;;24.84;72.32
12913;BME280;6524;51.368;11.984;2022-08-19T16:49:44;99957.72;;;24.71;72.50
12913;BME280;6524;51.368;11.984;2022-08-19T16:54:45;99963.75;;;24.73;73.33
12913;BME280;6524;51.368;11.984;2022-08-19T16:59:46;99968.06;;;24.56;73.42
12913;BME280;6524;51.368;11.984;2022-08-19T17:04:48;99965.03;;;24.51;73.61
12913;BME280;6524;51.368;11.984;2022-08-19T17:09:48;99960.69;;;24.68;73.62
12913;BME280;6524;51.368;11.984;2022-08-19T17:14:49;99954.13;;;24.62;73.38
12913;BME280;6524;51.368;11.984;2022-08-19T17:19:50;99951.94;;;24.30;74.80
12913;BME280;6524;51.368;11.984;2022-08-19T17:24:50;99968.25;;;24.17;75.84
12913;BME280;6524;51.368;11.984;2022-08-19T17:29:51;99978.13;;;24.07;76.65
12913;BME280;6524;51.368;11.984;2022-08-19T17:34:54;99975.34;;;23.99;76.98
12913;BME280;6524;51.368;11.984;2022-08-19T17:39:55;99969.03;;;24.00;76.42
12913;BME280;6524;51.368;11.984;2022-08-19T17:44:55;99976.72;;;24.03;75.78
12913;BME280;6524;51.368;11.984;2022-08-19T17:49:58;99969.53;;;23.86;77.49
12913;BME280;6524;51.368;11.984;2022-08-19T17:54:59;99981.84;;;23.87;75.81
12913;BME280;6524;51.368;11.984;2022-08-19T17:59:59;99981.88;;;23.67;78.19
12913;BME280;6524;51.368;11.984;2022-08-19T18:05:02;99984.69;;;23.56;78.73
12913;BME280;6524;51.368;11.984;2022-08-19T18:10:04;99995.91;;;23.69;78.60
12913;BME280;6524;51.368;11.984;2022-08-19T18:15:06;99996.84;;;23.68;77.76
12913;BME280;6524;51.368;11.984;2022-08-19T18:20:09;99987.25;;;23.48;78.27
12913;BME280;6524;51.368;11.984;2022-08-19T18:25:14;99991.72;;;23.57;78.83
12913;BME280;6524;51.368;11.984;2022-08-19T18:30:18;99984.00;;;23.54;79.63
12913;BME280;6524;51.368;11.984;2022-08-19T18:35:23;99989.19;;;23.46;78.47
12913;BME280;6524;51.368;11.984;2022-08-19T18:40:27;99987.81;;;23.42;80.29
12913;BME280;6524;51.368;11.984;2022-08-19T18:45:47;100002.63;;;23.35;82.00
12913;BME280;6524;51.368;11.984;2022-08-19T18:51:07;100002.91;;;23.31;82.08
12913;BME280;6524;51.368;11.984;2022-08-19T18:56:10;100021.97;;;23.27;82.87
12913;BME280;6524;51.368;11.984;2022-08-19T19:01:13;100022.69;;;23.19;84.37
12913;BME280;6524;51.368;11.984;2022-08-19T19:06:17;100030.69;;;23.19;84.19
12913;BME280;6524;51.368;11.984;2022-08-19T19:11:24;100022.81;;;23.08;85.13
12913;BME280;6524;51.368;11.984;2022-08-19T19:16:25;100036.94;;;22.99;86.13
12913;BME280;6524;51.368;11.984;2022-08-19T19:21:26;100041.22;;;22.80;86.51
12913;BME280;6524;51.368;11.984;2022-08-19T19:26:26;100042.22;;;22.79;86.43
12913;BME280;6524;51.368;11.984;2022-08-19T19:31:27;100051.53;;;22.64;87.99
12913;BME280;6524;51.368;11.984;2022-08-19T19:36:28;100045.41;;;22.73;88.50
12913;BME280;6524;51.368;11.984;2022-08-19T19:41:28;100040.91;;;22.64;88.43
12913;BME280;6524;51.368;11.984;2022-08-19T19:46:30;100044.81;;;22.60;88.29
12913;BME280;6524;51.368;11.984;2022-08-19T19:51:31;100044.00;;;22.59;88.89
12913;BME280;6524;51.368;11.984;2022-08-19T19:56:32;100042.44;;;22.57;89.36
12913;BME280;6524;51.368;11.984;2022-08-19T20:01:33;100036.94;;;22.49;90.25
12913;BME280;6524;51.368;11.984;2022-08-19T20:06:34;100046.97;;;22.35;91.24
12913;BME280;6524;51.368;11.984;2022-08-19T20:11:39;100048.91;;;22.33;91.69
12913;BME280;6524;51.368;11.984;2022-08-19T20:16:41;100060.06;;;22.27;91.51
12913;BME280;6524;51.368;11.984;2022-08-19T20:21:43;100053.09;;;22.26;91.54
12913;BME280;6524;51.368;11.984;2022-08-19T20:26:45;100063.72;;;22.26;92.26
12913;BME280;6524;51.368;11.984;2022-08-19T20:31:46;100065.78;;;22.23;92.20
12913;BME280;6524;51.368;11.984;2022-08-19T20:36:47;100069.53;;;22.20;92.77
12913;BME280;6524;51.368;11.984;2022-08-19T20:41:48;100084.16;;;22.14;91.53
12913;BME280;6524;51.368;11.984;2022-08-19T20:46:48;100075.47;;;22.33;90.20
12913;BME280;6524;51.368;11.984;2022-08-19T20:51:49;100086.66;;;22.37;89.20
12913;BME280;6524;51.368;11.984;2022-08-19T20:56:49;100069.75;;;22.28;89.67
12913;BME280;6524;51.368;11.984;2022-08-19T21:01:50;100065.00;;;22.32;90.00
12913;BME280;6524;51.368;11.984;2022-08-19T21:06:51;100047.78;;;22.26;89.83
12913;BME280;6524;51.368;11.984;2022-08-19T21:11:51;100054.19;;;22.24;90.04
12913;BME280;6524;51.368;11.984;2022-08-19T21:16:52;100056.72;;;22.25;90.08
12913;BME280;6524;51.368;11.984;2022-08-19T21:21:53;100052.38;;;22.24;91.12
12913;BME280;6524;51.368;11.984;2022-08-19T21:26:53;100060.59;;;22.21;91.27
12913;BME280;6524;51.368;11.984;2022-08-19T21:31:54;100065.06;;;22.21;91.33
12913;BME280;6524;51.368;11.984;2022-08-19T21:36:54;100078.28;;;22.11;92.63
12913;BME280;6524;51.368;11.984;2022-08-19T21:41:54;100086.75;;;22.05;92.85
12913;BME280;6524;51.368;11.984;2022-08-19T21:46:55;100086.03;;;22.03;93.52
12913;BME280;6524;51.368;11.984;2022-08-19T21:51:56;100081.41;;;21.95;94.50
12913;BME280;6524;51.368;11.984;2022-08-19T21:56:57;100077.75;;;21.96;94.61
12913;BME280;6524;51.368;11.984;2022-08-19T22:01:57;100073.81;;;21.90;95.55
12913;BME280;6524;51.368;11.984;2022-08-19T22:06:58;100077.69;;;21.86;95.98
12913;BME280;6524;51.368;11.984;2022-08-19T22:11:58;100081.59;;;21.82;96.17
12913;BME280;6524;51.368;11.984;2022-08-19T22:16:59;100072.13;;;21.89;96.21
12913;BME280;6524;51.368;11.984;2022-08-19T22:22:00;100063.19;;;21.90;95.48
12913;BME280;6524;51.368;11.984;2022-08-19T22:27:00;100058.47;;;21.94;95.39
12913;BME280;6524;51.368;11.984;2022-08-19T22:32:01;100059.25;;;21.85;96.35
12913;BME280;6524;51.368;11.984;2022-08-19T22:37:02;100062.19;;;21.82;96.80
12913;BME280;6524;51.368;11.984;2022-08-19T22:42:02;100055.06;;;21.82;96.83
12913;BME280;6524;51.368;11.984;2022-08-19T22:47:03;100061.13;;;21.73;97.25
12913;BME280;6524;51.368;11.984;2022-08-19T22:52:03;100070.91;;;21.73;98.05
12913;BME280;6524;51.368;11.984;2022-08-19T22:57:20;100066.69;;;21.70;98.50
12913;BME280;6524;51.368;11.984;2022-08-19T23:02:24;100063.00;;;21.61;99.41
12913;BME280;6524;51.368;11.984;2022-08-19T23:07:25;100068.13;;;21.74;99.16
12913;BME280;6524;51.368;11.984;2022-08-19T23:12:32;100069.16;;;21.62;99.21
12913;BME280;6524;51.368;11.984;2022-08-19T23:17:33;100073.50;;;21.63;100.00
12913;BME280;6524;51.368;11.984;2022-08-19T23:22:37;100079.56;;;21.75;99.16
12913;BME280;6524;51.368;11.984;2022-08-19T23:27:37;100082.69;;;21.80;98.74
12913;BME280;6524;51.368;11.984;2022-08-19T23:33:02;100099.44;;;21.80;98.46
12913;BME280;6524;51.368;11.984;2022-08-19T23:38:04;100096.53;;;21.83;98.12
12913;BME280;6524;51.368;11.984;2022-08-19T23:43:06;100082.09;;;21.76;98.56
12913;BME280;6524;51.368;11.984;2022-08-19T23:48:08;100073.00;;;21.69;99.76
12913;BME280;6524;51.368;11.984;2022-08-19T23:53:09;100073.88;;;21.79;99.09
12913;BME280;6524;51.368;11.984;2022-08-19T23:58:11;100074.41;;;21.73;99.57
